sensor_id;sensor_type;location;lat;lon;timestamp;P1;durP1;ratioP1;P2;durP2;ratioP2
22764;SDS011;11549;50.852;3.816;2022-08-21T00:00:37;8.00;;;1.92;;
22764;SDS011;11549;50.852;3.816;2022-08-21T00:03:10;5.78;;;2.05;;
22764;SDS011;11549;50.852;3.816;2022-08-21T00:05:41;5.43;;;1.75;;
22764;SDS011;11549;50.852;3.816;2022-08-21T00:08:12;8.15;;;2.15;;
22764;SDS011;11549;50.852;3.816;2022-08-21T00:10:41;5.90;;;1.70;;
22764;SDS011;11549;50.852;3.816;2022-08-21T00:13:10;11.20;;;2.15;;
22764;SDS011;11549;50.852;3.816;2022-08-21T00:15:44;7.30;;;2.03;;
22764;SDS011;11549;50.852;3.816;2022-08-21T00:18:12;9.45;;;2.70;;
22764;SDS011;11549;50.852;3.816;2022-08-21T00:20:41;7.47;;;2.20;;
22764;SDS011;11549;50.852;3.816;2022-08-21T00:23:11;8.77;;;2.38;;
22764;SDS011;11549;50.852;3.816;2022-08-21T00:25:42;6.80;;;1.98;;
22764;SDS011;11549;50.852;3.816;2022-08-21T00:28:12;9.43;;;2.28;;
22764;SDS011;11549;50.852;3.816;2022-08-21T00:30:41;6.13;;;2.00;;
22764;SDS011;11549;50.852;3.816;2022-08-21T00:33:10;6.63;;;2.00;;
22764;SDS011;11549;50.852;3.816;2022-08-21T00:35:40;9.38;;;2.20;;
22764;SDS011;11549;50.852;3.816;2022-08-21T00:38:10;7.88;;;2.22;;
22764;SDS011;11549;50.852;3.816;2022-08-21T00:40:42;6.10;;;2.33;;
22764;SDS011;11549;50.852;3.816;2022-08-21T00:43:16;10.10;;;2.80;;
22764;SDS011;11549;50.852;3.816;2022-08-21T00:45:46;9.82;;;2.30;;
22764;SDS011;11549;50.852;3.816;2022-08-21T00:48:14;4.95;;;1.90;;
22764;SDS011;11549;50.852;3.816;2022-08-21T00:50:44;10.05;;;2.25;;
22764;SDS011;11549;50.852;3.816;2022-08-21T00:53:21;9.68;;;2.47;;
22764;SDS011;11549;50.852;3.816;2022-08-21T00:55:50;8.43;;;2.60;;
22764;SDS011;11549;50.852;3.816;2022-08-21T00:58:22;9.20;;;2.60;;
22764;SDS011;11549;50.852;3.816;2022-08-21T01:00:51;9.52;;;2.95;;
22764;SDS011;11549;50.852;3.816;2022-08-21T01:03:21;10.43;;;3.20;;
22764;SDS011;11549;50.852;3.816;2022-08-21T01:05:52;8.68;;;2.40;;
22764;SDS011;11549;50.852;3.816;2022-08-21T01:08:21;7.65;;;2.53;;
22764;SDS011;11549;50.852;3.816;2022-08-21T01:10:51;9.07;;;2.85;;
22764;SDS011;11549;50.852;3.816;2022-08-21T01:13:21;7.60;;;2.95;;
22764;SDS011;11549;50.852;3.816;2022-08-21T01:15:52;10.38;;;2.90;;
22764;SDS011;11549;50.852;3.816;2022-08-21T01:18:22;7.65;;;2.60;;
22764;SDS011;11549;50.852;3.816;2022-08-21T01:21:01;7.70;;;3.20;;
22764;SDS011;11549;50.852;3.816;2022-08-21T01:23:31;10.38;;;2.78;;
22764;SDS011;11549;50.852;3.816;2022-08-21T01:25:59;7.40;;;2.92;;
22764;SDS011;11549;50.852;3.816;2022-08-21T01:28:28;9.70;;;3.30;;
22764;SDS011;11549;50.852;3.816;2022-08-21T01:31:02;11.50;;;3.30;;
22764;SDS011;11549;50.852;3.816;2022-08-21T01:33:33;7.63;;;3.20;;
22764;SDS011;11549;50.852;3.816;2022-08-21T01:36:03;11.02;;;3.40;;
22764;SDS011;11549;50.852;3.816;2022-08-21T01:38:32;7.80;;;3.35;;
22764;SDS011;11549;50.852;3.816;2022-08-21T01:41:01;10.85;;;3.50;;
22764;SDS011;11549;50.852;3.816;2022-08-21T01:43:29;10.57;;;2.97;;
22764;SDS011;11549;50.852;3.816;2022-08-21T01:46:05;10.30;;;2.97;;
22764;SDS011;11549;50.852;3.816;2022-08-21T01:48:34;10.05;;;3.10;;
22764;SDS011;11549;50.852;3.816;2022-08-21T01:51:03;8.88;;;3.10;;
22764;SDS011;11549;50.852;3.816;2022-08-21T01:53:33;7.95;;;2.63;;
22764;SDS011;11549;50.852;3.816;2022-08-21T01:56:03;8.57;;;3.10;;
22764;SDS011;11549;50.852;3.816;2022-08-21T01:58:38;11.45;;;3.25;;
22764;SDS011;11549;50.852;3.816;2022-08-21T02:01:06;9.50;;;3.40;;
22764;SDS011;11549;50.852;3.816;2022-08-21T02:03:36;6.78;;;3.03;;
22764;SDS011;11549;50.852;3.816;2022-08-21T02:06:06;8.18;;;2.88;;
22764;SDS011;11549;50.852;3.816;2022-08-21T02:08:40;10.23;;;3.20;;
22764;SDS011;11549;50.852;3.816;2022-08-21T02:11:08;9.25;;;3.67;;
22764;SDS011;11549;50.852;3.816;2022-08-21T02:13:36;10.82;;;3.15;;
22764;SDS011;11549;50.852;3.816;2022-08-21T02:16:05;7.57;;;2.97;;
22764;SDS011;11549;50.852;3.816;2022-08-21T02:18:34;7.93;;;3.13;;
22764;SDS011;11549;50.852;3.816;2022-08-21T02:21:03;10.32;;;3.17;;
22764;SDS011;11549;50.852;3.816;2022-08-21T02:23:33;8.52;;;3.08;;
22764;SDS011;11549;50.852;3.816;2022-08-21T02:26:03;8.18;;;2.85;;
22764;SDS011;11549;50.852;3.816;2022-08-21T02:28:33;7.82;;;2.97;;
22764;SDS011;11549;50.852;3.816;2022-08-21T02:31:02;9.27;;;2.92;;
22764;SDS011;11549;50.852;3.816;2022-08-21T02:33:31;9.63;;;3.10;;
22764;SDS011;11549;50.852;3.816;2022-08-21T02:36:00;8.75;;;2.70;;
22764;SDS011;11549;50.852;3.816;2022-08-21T02:38:31;9.02;;;2.95;;
22764;SDS011;11549;50.852;3.816;2022-08-21T02:41:00;10.77;;;2.85;;
22764;SDS011;11549;50.852;3.816;2022-08-21T02:43:29;7.70;;;2.90;;
22764;SDS011;11549;50.852;3.816;2022-08-21T02:45:58;8.20;;;3.17;;
22764;SDS011;11549;50.852;3.816;2022-08-21T02:48:28;6.50;;;2.70;;
22764;SDS011;11549;50.852;3.816;2022-08-21T02:50:59;10.80;;;3.15;;
22764;SDS011;11549;50.852;3.816;2022-08-21T02:53:31;12.48;;;3.13;;
22764;SDS011;11549;50.852;3.816;2022-08-21T02:56:02;8.05;;;3.25;;
22764;SDS011;11549;50.852;3.816;2022-08-21T02:58:35;7.68;;;2.58;;
22764;SDS011;11549;50.852;3.816;2022-08-21T03:01:07;9.63;;;3.53;;
22764;SDS011;11549;50.852;3.816;2022-08-21T03:03:36;9.25;;;3.28;;
22764;SDS011;11549;50.852;3.816;2022-08-21T03:06:05;11.25;;;3.88;;
22764;SDS011;11549;50.852;3.816;2022-08-21T03:08:36;9.55;;;3.15;;
22764;SDS011;11549;50.852;3.816;2022-08-21T03:11:05;11.02;;;3.40;;
22764;SDS011;11549;50.852;3.816;2022-08-21T03:13:37;11.82;;;3.25;;
22764;SDS011;11549;50.852;3.816;2022-08-21T03:16:06;6.95;;;2.67;;
22764;SDS011;11549;50.852;3.816;2022-08-21T03:18:36;7.43;;;2.80;;
22764;SDS011;11549;50.852;3.816;2022-08-21T03:21:05;11.23;;;3.35;;
22764;SDS011;11549;50.852;3.816;2022-08-21T03:23:34;6.57;;;2.60;;
22764;SDS011;11549;50.852;3.816;2022-08-21T03:26:04;9.30;;;2.72;;
22764;SDS011;11549;50.852;3.816;2022-08-21T03:28:33;9.80;;;2.40;;
22764;SDS011;11549;50.852;3.816;2022-08-21T03:31:01;9.20;;;2.47;;
22764;SDS011;11549;50.852;3.816;2022-08-21T03:33:30;9.07;;;2.38;;
22764;SDS011;11549;50.852;3.816;2022-08-21T03:35:59;7.35;;;2.60;;
22764;SDS011;11549;50.852;3.816;2022-08-21T03:38:31;8.55;;;2.58;;
22764;SDS011;11549;50.852;3.816;2022-08-21T03:41:02;8.98;;;3.00;;
22764;SDS011;11549;50.852;3.816;2022-08-21T03:43:34;10.10;;;2.65;;
22764;SDS011;11549;50.852;3.816;2022-08-21T03:46:03;9.10;;;2.28;;
22764;SDS011;11549;50.852;3.816;2022-08-21T03:48:33;7.43;;;2.58;;
22764;SDS011;11549;50.852;3.816;2022-08-21T03:51:03;11.82;;;2.40;;
22764;SDS011;11549;50.852;3.816;2022-08-21T03:53:32;10.68;;;2.75;;
22764;SDS011;11549;50.852;3.816;2022-08-21T03:56:01;10.43;;;2.35;;
22764;SDS011;11549;50.852;3.816;2022-08-21T03:58:31;6.50;;;2.25;;
22764;SDS011;11549;50.852;3.816;2022-08-21T04:01:00;7.28;;;2.45;;
22764;SDS011;11549;50.852;3.816;2022-08-21T04:03:30;8.70;;;2.28;;
22764;SDS011;11549;50.852;3.816;2022-08-21T04:05:59;12.05;;;2.50;;
22764;SDS011;11549;50.852;3.816;2022-08-21T04:08:27;12.70;;;2.95;;
22764;SDS011;11549;50.852;3.816;2022-08-21T04:10:56;9.70;;;2.70;;
22764;SDS011;11549;50.852;3.816;2022-08-21T04:13:26;9.43;;;2.70;;
22764;SDS011;11549;50.852;3.816;2022-08-21T04:15:56;8.82;;;2.45;;
22764;SDS011;11549;50.852;3.816;2022-08-21T04:18:25;9.90;;;2.80;;
22764;SDS011;11549;50.852;3.816;2022-08-21T04:20:54;10.45;;;2.90;;
22764;SDS011;11549;50.852;3.816;2022-08-21T04:23:25;10.48;;;3.03;;
22764;SDS011;11549;50.852;3.816;2022-08-21T04:25:54;13.02;;;3.00;;
22764;SDS011;11549;50.852;3.816;2022-08-21T04:28:24;9.07;;;2.58;;
22764;SDS011;11549;50.852;3.816;2022-08-21T04:30:58;9.75;;;2.63;;
22764;SDS011;11549;50.852;3.816;2022-08-21T04:33:26;12.25;;;2.70;;
22764;SDS011;11549;50.852;3.816;2022-08-21T04:35:54;8.77;;;2.60;;
22764;SDS011;11549;50.852;3.816;2022-08-21T04:38:23;12.02;;;2.67;;
22764;SDS011;11549;50.852;3.816;2022-08-21T04:40:58;8.32;;;2.47;;
22764;SDS011;11549;50.852;3.816;2022-08-21T04:43:27;10.65;;;2.60;;
22764;SDS011;11549;50.852;3.816;2022-08-21T04:45:55;10.57;;;2.50;;
22764;SDS011;11549;50.852;3.816;2022-08-21T04:48:24;11.15;;;2.67;;
22764;SDS011;11549;50.852;3.816;2022-08-21T04:50:54;9.93;;;2.55;;
22764;SDS011;11549;50.852;3.816;2022-08-21T04:53:29;9.95;;;2.55;;
22764;SDS011;11549;50.852;3.816;2022-08-21T04:56:02;9.98;;;2.40;;
22764;SDS011;11549;50.852;3.816;2022-08-21T04:58:34;9.02;;;2.38;;
22764;SDS011;11549;50.852;3.816;2022-08-21T05:01:07;8.88;;;2.25;;
22764;SDS011;11549;50.852;3.816;2022-08-21T05:03:40;11.18;;;2.70;;
22764;SDS011;11549;50.852;3.816;2022-08-21T05:06:10;8.45;;;2.03;;
22764;SDS011;11549;50.852;3.816;2022-08-21T05:08:42;9.93;;;2.60;;
22764;SDS011;11549;50.852;3.816;2022-08-21T05:11:13;9.98;;;2.70;;
22764;SDS011;11549;50.852;3.816;2022-08-21T05:13:41;8.30;;;1.95;;
22764;SDS011;11549;50.852;3.816;2022-08-21T05:16:10;7.88;;;2.20;;
22764;SDS011;11549;50.852;3.816;2022-08-21T05:18:39;11.35;;;2.45;;
22764;SDS011;11549;50.852;3.816;2022-08-21T05:21:08;13.75;;;2.70;;
22764;SDS011;11549;50.852;3.816;2022-08-21T05:23:37;8.27;;;2.30;;
22764;SDS011;11549;50.852;3.816;2022-08-21T05:26:05;11.00;;;2.50;;
22764;SDS011;11549;50.852;3.816;2022-08-21T05:28:43;7.60;;;2.25;;
22764;SDS011;11549;50.852;3.816;2022-08-21T05:31:12;9.32;;;2.25;;
22764;SDS011;11549;50.852;3.816;2022-08-21T05:33:41;8.50;;;2.03;;
22764;SDS011;11549;50.852;3.816;2022-08-21T05:36:10;9.85;;;2.40;;
22764;SDS011;11549;50.852;3.816;2022-08-21T05:38:38;9.77;;;2.65;;
22764;SDS011;11549;50.852;3.816;2022-08-21T05:41:06;8.93;;;2.00;;
22764;SDS011;11549;50.852;3.816;2022-08-21T05:43:35;8.75;;;2.45;;
22764;SDS011;11549;50.852;3.816;2022-08-21T05:46:05;7.28;;;2.05;;
22764;SDS011;11549;50.852;3.816;2022-08-21T05:48:34;6.40;;;2.03;;
22764;SDS011;11549;50.852;3.816;2022-08-21T05:51:06;9.30;;;2.17;;
22764;SDS011;11549;50.852;3.816;2022-08-21T05:53:36;7.80;;;1.80;;
22764;SDS011;11549;50.852;3.816;2022-08-21T05:56:05;8.63;;;1.77;;
22764;SDS011;11549;50.852;3.816;2022-08-21T05:58:33;7.95;;;1.98;;
22764;SDS011;11549;50.852;3.816;2022-08-21T06:01:03;8.77;;;1.85;;
22764;SDS011;11549;50.852;3.816;2022-08-21T06:03:33;6.43;;;2.03;;
22764;SDS011;11549;50.852;3.816;2022-08-21T06:06:03;6.88;;;1.77;;
22764;SDS011;11549;50.852;3.816;2022-08-21T06:08:33;8.05;;;1.60;;
22764;SDS011;11549;50.852;3.816;2022-08-21T06:11:01;7.43;;;1.60;;
22764;SDS011;11549;50.852;3.816;2022-08-21T06:13:31;6.93;;;1.60;;
22764;SDS011;11549;50.852;3.816;2022-08-21T06:16:00;7.30;;;1.63;;
22764;SDS011;11549;50.852;3.816;2022-08-21T06:18:31;7.78;;;1.58;;
22764;SDS011;11549;50.852;3.816;2022-08-21T06:20:59;8.85;;;1.80;;
22764;SDS011;11549;50.852;3.816;2022-08-21T06:23:29;8.18;;;1.90;;
22764;SDS011;11549;50.852;3.816;2022-08-21T06:25:59;7.78;;;1.80;;
22764;SDS011;11549;50.852;3.816;2022-08-21T06:28:27;10.38;;;1.98;;
22764;SDS011;11549;50.852;3.816;2022-08-21T06:30:56;7.70;;;1.70;;
22764;SDS011;11549;50.852;3.816;2022-08-21T06:33:25;8.65;;;2.00;;
22764;SDS011;11549;50.852;3.816;2022-08-21T06:35:58;9.10;;;2.00;;
22764;SDS011;11549;50.852;3.816;2022-08-21T06:38:26;7.40;;;1.63;;
22764;SDS011;11549;50.852;3.816;2022-08-21T06:40:56;6.35;;;1.63;;
22764;SDS011;11549;50.852;3.816;2022-08-21T06:43:25;7.28;;;1.73;;
22764;SDS011;11549;50.852;3.816;2022-08-21T06:46:05;7.13;;;1.98;;
22764;SDS011;11549;50.852;3.816;2022-08-21T06:48:34;8.70;;;1.80;;
22764;SDS011;11549;50.852;3.816;2022-08-21T06:51:03;9.05;;;2.17;;
22764;SDS011;11549;50.852;3.816;2022-08-21T06:53:31;8.43;;;2.00;;
22764;SDS011;11549;50.852;3.816;2022-08-21T06:56:01;8.30;;;2.10;;
22764;SDS011;11549;50.852;3.816;2022-08-21T06:58:30;8.80;;;2.00;;
22764;SDS011;11549;50.852;3.816;2022-08-21T07:00:58;7.60;;;1.50;;
22764;SDS011;11549;50.852;3.816;2022-08-21T07:03:29;7.97;;;1.77;;
22764;SDS011;11549;50.852;3.816;2022-08-21T07:05:58;6.95;;;1.90;;
22764;SDS011;11549;50.852;3.816;2022-08-21T07:08:27;7.40;;;1.98;;
22764;SDS011;11549;50.852;3.816;2022-08-21T07:10:56;10.07;;;2.13;;
22764;SDS011;11549;50.852;3.816;2022-08-21T07:15:58;7.72;;;1.80;;
22764;SDS011;11549;50.852;3.816;2022-08-21T07:18:29;9.77;;;1.92;;
22764;SDS011;11549;50.852;3.816;2022-08-21T07:20:58;6.82;;;1.65;;
22764;SDS011;11549;50.852;3.816;2022-08-21T07:23:30;10.63;;;2.17;;
22764;SDS011;11549;50.852;3.816;2022-08-21T07:26:03;6.75;;;1.65;;
22764;SDS011;11549;50.852;3.816;2022-08-21T07:28:33;9.98;;;1.98;;
22764;SDS011;11549;50.852;3.816;2022-08-21T07:31:01;6.10;;;1.52;;
22764;SDS011;11549;50.852;3.816;2022-08-21T07:33:31;8.45;;;1.92;;
22764;SDS011;11549;50.852;3.816;2022-08-21T07:36:01;7.65;;;1.83;;
22764;SDS011;11549;50.852;3.816;2022-08-21T07:38:29;7.90;;;1.70;;
22764;SDS011;11549;50.852;3.816;2022-08-21T07:40:58;11.55;;;2.00;;
22764;SDS011;11549;50.852;3.816;2022-08-21T07:43:28;10.40;;;1.85;;
22764;SDS011;11549;50.852;3.816;2022-08-21T07:45:58;8.07;;;1.85;;
22764;SDS011;11549;50.852;3.816;2022-08-21T07:48:27;10.65;;;1.90;;
22764;SDS011;11549;50.852;3.816;2022-08-21T07:50:55;8.35;;;1.90;;
22764;SDS011;11549;50.852;3.816;2022-08-21T07:53:23;9.52;;;2.10;;
22764;SDS011;11549;50.852;3.816;2022-08-21T07:55:52;9.15;;;2.08;;
22764;SDS011;11549;50.852;3.816;2022-08-21T07:58:20;8.50;;;2.13;;
22764;SDS011;11549;50.852;3.816;2022-08-21T08:00:48;8.18;;;2.03;;
22764;SDS011;11549;50.852;3.816;2022-08-21T08:03:18;7.90;;;1.73;;
22764;SDS011;11549;50.852;3.816;2022-08-21T08:05:54;10.63;;;2.20;;
22764;SDS011;11549;50.852;3.816;2022-08-21T08:08:23;10.13;;;1.83;;
22764;SDS011;11549;50.852;3.816;2022-08-21T08:10:52;8.25;;;1.90;;
22764;SDS011;11549;50.852;3.816;2022-08-21T08:13:21;8.85;;;2.20;;
22764;SDS011;11549;50.852;3.816;2022-08-21T08:15:49;7.88;;;1.75;;
22764;SDS011;11549;50.852;3.816;2022-08-21T08:18:19;10.48;;;1.80;;
22764;SDS011;11549;50.852;3.816;2022-08-21T08:20:48;8.07;;;2.08;;
22764;SDS011;11549;50.852;3.816;2022-08-21T08:23:16;8.07;;;2.10;;
22764;SDS011;11549;50.852;3.816;2022-08-21T08:25:44;5.70;;;1.55;;
22764;SDS011;11549;50.852;3.816;2022-08-21T08:28:12;10.43;;;2.05;;
22764;SDS011;11549;50.852;3.816;2022-08-21T08:30:43;9.15;;;2.00;;
22764;SDS011;11549;50.852;3.816;2022-08-21T08:33:11;9.85;;;2.28;;
22764;SDS011;11549;50.852;3.816;2022-08-21T08:35:42;8.48;;;2.17;;
22764;SDS011;11549;50.852;3.816;2022-08-21T08:38:12;6.25;;;1.77;;
22764;SDS011;11549;50.852;3.816;2022-08-21T08:40:47;8.13;;;1.85;;
22764;SDS011;11549;50.852;3.816;2022-08-21T08:43:22;7.72;;;1.98;;
22764;SDS011;11549;50.852;3.816;2022-08-21T08:45:53;7.93;;;1.83;;
22764;SDS011;11549;50.852;3.816;2022-08-21T08:48:30;8.45;;;1.80;;
22764;SDS011;11549;50.852;3.816;2022-08-21T08:51:09;8.93;;;1.95;;
22764;SDS011;11549;50.852;3.816;2022-08-21T08:53:47;9.20;;;2.08;;
22764;SDS011;11549;50.852;3.816;2022-08-21T08:56:18;9.00;;;1.95;;
22764;SDS011;11549;50.852;3.816;2022-08-21T08:58:53;8.07;;;2.17;;
22764;SDS011;11549;50.852;3.816;2022-08-21T09:01:26;8.43;;;2.00;;
22764;SDS011;11549;50.852;3.816;2022-08-21T09:03:54;9.82;;;2.10;;
22764;SDS011;11549;50.852;3.816;2022-08-21T09:06:31;11.82;;;2.40;;
22764;SDS011;11549;50.852;3.816;2022-08-21T09:09:09;10.73;;;2.22;;
22764;SDS011;11549;50.852;3.816;2022-08-21T09:11:51;9.73;;;2.10;;
22764;SDS011;11549;50.852;3.816;2022-08-21T09:14:27;8.65;;;2.15;;
22764;SDS011;11549;50.852;3.816;2022-08-21T09:17:15;8.35;;;2.33;;
22764;SDS011;11549;50.852;3.816;2022-08-21T09:19:56;9.02;;;2.03;;
22764;SDS011;11549;50.852;3.816;2022-08-21T09:22:35;9.23;;;2.15;;
22764;SDS011;11549;50.852;3.816;2022-08-21T09:25:20;7.80;;;2.00;;
22764;SDS011;11549;50.852;3.816;2022-08-21T09:27:51;8.13;;;2.35;;
22764;SDS011;11549;50.852;3.816;2022-08-21T09:30:28;8.40;;;2.03;;
22764;SDS011;11549;50.852;3.816;2022-08-21T09:32:59;7.47;;;1.85;;
22764;SDS011;11549;50.852;3.816;2022-08-21T09:35:27;9.07;;;2.00;;
22764;SDS011;11549;50.852;3.816;2022-08-21T09:37:57;10.00;;;2.05;;
22764;SDS011;11549;50.852;3.816;2022-08-21T09:40:31;9.05;;;2.10;;
22764;SDS011;11549;50.852;3.816;2022-08-21T09:43:04;6.78;;;1.80;;
22764;SDS011;11549;50.852;3.816;2022-08-21T09:45:34;6.82;;;1.58;;
22764;SDS011;11549;50.852;3.816;2022-08-21T09:48:10;8.68;;;1.65;;
22764;SDS011;11549;50.852;3.816;2022-08-21T09:50:40;7.68;;;2.03;;
22764;SDS011;11549;50.852;3.816;2022-08-21T09:53:16;9.93;;;2.00;;
22764;SDS011;11549;50.852;3.816;2022-08-21T09:55:47;10.45;;;2.17;;
22764;SDS011;11549;50.852;3.816;2022-08-21T09:58:37;10.38;;;2.17;;
22764;SDS011;11549;50.852;3.816;2022-08-21T10:01:12;9.30;;;2.10;;
22764;SDS011;11549;50.852;3.816;2022-08-21T10:03:42;7.75;;;2.10;;
22764;SDS011;11549;50.852;3.816;2022-08-21T10:06:20;6.78;;;1.90;;
22764;SDS011;11549;50.852;3.816;2022-08-21T10:08:51;9.63;;;2.00;;
22764;SDS011;11549;50.852;3.816;2022-08-21T10:11:33;8.00;;;1.90;;
22764;SDS011;11549;50.852;3.816;2022-08-21T10:14:05;7.95;;;1.90;;
22764;SDS011;11549;50.852;3.816;2022-08-21T10:16:43;7.32;;;1.98;;
22764;SDS011;11549;50.852;3.816;2022-08-21T10:19:26;8.63;;;1.92;;
22764;SDS011;11549;50.852;3.816;2022-08-21T10:22:07;7.80;;;2.00;;
22764;SDS011;11549;50.852;3.816;2022-08-21T10:24:45;9.23;;;2.22;;
22764;SDS011;11549;50.852;3.816;2022-08-21T10:27:21;8.25;;;2.17;;
22764;SDS011;11549;50.852;3.816;2022-08-21T10:29:59;11.30;;;2.55;;
22764;SDS011;11549;50.852;3.816;2022-08-21T10:32:42;10.35;;;2.20;;
22764;SDS011;11549;50.852;3.816;2022-08-21T10:35:27;8.18;;;2.10;;
22764;SDS011;11549;50.852;3.816;2022-08-21T10:38:02;8.40;;;2.40;;
22764;SDS011;11549;50.852;3.816;2022-08-21T10:41:11;8.75;;;2.13;;
22764;SDS011;11549;50.852;3.816;2022-08-21T10:43:46;7.65;;;2.17;;
22764;SDS011;11549;50.852;3.816;2022-08-21T10:46:25;9.27;;;2.30;;
22764;SDS011;11549;50.852;3.816;2022-08-21T10:49:22;11.43;;;1.90;;
22764;SDS011;11549;50.852;3.816;2022-08-21T10:51:58;10.02;;;2.50;;
22764;SDS011;11549;50.852;3.816;2022-08-21T10:54:38;8.98;;;2.47;;
22764;SDS011;11549;50.852;3.816;2022-08-21T10:57:16;6.85;;;2.05;;
22764;SDS011;11549;50.852;3.816;2022-08-21T10:59:59;5.40;;;1.75;;
22764;SDS011;11549;50.852;3.816;2022-08-21T11:02:33;8.32;;;2.00;;
22764;SDS011;11549;50.852;3.816;2022-08-21T11:05:08;8.65;;;1.73;;
22764;SDS011;11549;50.852;3.816;2022-08-21T11:07:45;10.20;;;2.58;;
22764;SDS011;11549;50.852;3.816;2022-08-21T11:10:18;9.20;;;2.40;;
22764;SDS011;11549;50.852;3.816;2022-08-21T11:12:53;10.93;;;2.30;;
22764;SDS011;11549;50.852;3.816;2022-08-21T11:15:32;8.80;;;2.22;;
22764;SDS011;11549;50.852;3.816;2022-08-21T11:18:09;9.38;;;2.15;;
22764;SDS011;11549;50.852;3.816;2022-08-21T11:20:51;8.18;;;2.03;;
22764;SDS011;11549;50.852;3.816;2022-08-21T11:23:28;8.25;;;2.10;;
22764;SDS011;11549;50.852;3.816;2022-08-21T11:26:04;9.00;;;2.00;;
22764;SDS011;11549;50.852;3.816;2022-08-21T11:28:38;8.40;;;1.98;;
22764;SDS011;11549;50.852;3.816;2022-08-21T11:31:15;10.27;;;2.50;;
22764;SDS011;11549;50.852;3.816;2022-08-21T11:33:56;10.27;;;2.20;;
22764;SDS011;11549;50.852;3.816;2022-08-21T11:36:36;8.25;;;1.92;;
22764;SDS011;11549;50.852;3.816;2022-08-21T11:39:14;7.72;;;1.80;;
22764;SDS011;11549;50.852;3.816;2022-08-21T11:41:54;8.85;;;1.80;;
22764;SDS011;11549;50.852;3.816;2022-08-21T11:44:38;9.38;;;2.35;;
22764;SDS011;11549;50.852;3.816;2022-08-21T11:47:18;8.93;;;2.22;;
22764;SDS011;11549;50.852;3.816;2022-08-21T11:49:58;8.23;;;2.00;;
22764;SDS011;11549;50.852;3.816;2022-08-21T11:52:55;7.78;;;2.20;;
22764;SDS011;11549;50.852;3.816;2022-08-21T11:55:28;11.13;;;2.30;;
22764;SDS011;11549;50.852;3.816;2022-08-21T11:58:00;6.78;;;1.90;;
22764;SDS011;11549;50.852;3.816;2022-08-21T12:00:35;8.93;;;2.28;;
22764;SDS011;11549;50.852;3.816;2022-08-21T12:03:07;9.30;;;2.20;;
22764;SDS011;11549;50.852;3.816;2022-08-21T12:05:41;6.60;;;1.77;;
22764;SDS011;11549;50.852;3.816;2022-08-21T12:08:13;9.93;;;1.95;;
22764;SDS011;11549;50.852;3.816;2022-08-21T12:11:00;8.63;;;2.42;;
22764;SDS011;11549;50.852;3.816;2022-08-21T12:13:36;8.18;;;2.10;;
22764;SDS011;11549;50.852;3.816;2022-08-21T12:16:13;7.65;;;1.90;;
22764;SDS011;11549;50.852;3.816;2022-08-21T12:18:43;11.98;;;2.83;;
22764;SDS011;11549;50.852;3.816;2022-08-21T12:21:20;10.77;;;2.63;;
22764;SDS011;11549;50.852;3.816;2022-08-21T12:23:59;11.05;;;2.70;;
22764;SDS011;11549;50.852;3.816;2022-08-21T12:26:29;10.85;;;2.47;;
22764;SDS011;11549;50.852;3.816;2022-08-21T12:29:04;9.55;;;2.65;;
22764;SDS011;11549;50.852;3.816;2022-08-21T12:31:48;9.30;;;2.20;;
22764;SDS011;11549;50.852;3.816;2022-08-21T12:34:19;8.98;;;2.38;;
22764;SDS011;11549;50.852;3.816;2022-08-21T12:36:52;10.25;;;2.00;;
22764;SDS011;11549;50.852;3.816;2022-08-21T12:39:24;8.65;;;2.13;;
22764;SDS011;11549;50.852;3.816;2022-08-21T12:41:57;10.23;;;2.08;;
22764;SDS011;11549;50.852;3.816;2022-08-21T12:44:34;8.55;;;2.05;;
22764;SDS011;11549;50.852;3.816;2022-08-21T12:47:15;9.18;;;2.05;;
22764;SDS011;11549;50.852;3.816;2022-08-21T12:49:49;8.93;;;1.90;;
22764;SDS011;11549;50.852;3.816;2022-08-21T12:52:22;9.10;;;2.28;;
22764;SDS011;11549;50.852;3.816;2022-08-21T12:54:52;11.93;;;2.13;;
22764;SDS011;11549;50.852;3.816;2022-08-21T12:57:21;8.80;;;2.20;;
22764;SDS011;11549;50.852;3.816;2022-08-21T12:59:54;8.93;;;2.00;;
22764;SDS011;11549;50.852;3.816;2022-08-21T13:02:26;9.07;;;2.30;;
22764;SDS011;11549;50.852;3.816;2022-08-21T13:04:58;11.40;;;2.42;;
22764;SDS011;11549;50.852;3.816;2022-08-21T13:07:31;10.03;;;2.53;;
22764;SDS011;11549;50.852;3.816;2022-08-21T13:10:03;7.43;;;2.05;;
22764;SDS011;11549;50.852;3.816;2022-08-21T13:12:34;9.88;;;2.10;;
22764;SDS011;11549;50.852;3.816;2022-08-21T13:15:04;9.43;;;2.20;;
22764;SDS011;11549;50.852;3.816;2022-08-21T13:17:36;7.70;;;2.20;;
22764;SDS011;11549;50.852;3.816;2022-08-21T13:20:10;9.38;;;2.55;;
22764;SDS011;11549;50.852;3.816;2022-08-21T13:22:48;10.48;;;2.08;;
22764;SDS011;11549;50.852;3.816;2022-08-21T13:25:18;10.77;;;2.40;;
22764;SDS011;11549;50.852;3.816;2022-08-21T13:27:56;8.95;;;1.98;;
22764;SDS011;11549;50.852;3.816;2022-08-21T13:30:28;11.40;;;2.22;;
22764;SDS011;11549;50.852;3.816;2022-08-21T13:32:58;7.95;;;2.28;;
22764;SDS011;11549;50.852;3.816;2022-08-21T13:35:30;10.15;;;2.53;;
22764;SDS011;11549;50.852;3.816;2022-08-21T13:38:03;8.38;;;2.10;;
22764;SDS011;11549;50.852;3.816;2022-08-21T13:40:38;9.88;;;2.17;;
22764;SDS011;11549;50.852;3.816;2022-08-21T13:43:10;9.60;;;2.38;;
22764;SDS011;11549;50.852;3.816;2022-08-21T13:45:48;12.35;;;2.58;;
22764;SDS011;11549;50.852;3.816;2022-08-21T13:48:18;8.18;;;2.30;;
22764;SDS011;11549;50.852;3.816;2022-08-21T13:50:48;8.27;;;2.10;;
22764;SDS011;11549;50.852;3.816;2022-08-21T13:53:21;8.80;;;2.35;;
22764;SDS011;11549;50.852;3.816;2022-08-21T13:55:51;10.55;;;2.40;;
22764;SDS011;11549;50.852;3.816;2022-08-21T13:58:26;7.47;;;2.08;;
22764;SDS011;11549;50.852;3.816;2022-08-21T14:00:57;10.93;;;2.20;;
22764;SDS011;11549;50.852;3.816;2022-08-21T14:03:33;12.38;;;2.30;;
22764;SDS011;11549;50.852;3.816;2022-08-21T14:06:12;9.95;;;2.25;;
22764;SDS011;11549;50.852;3.816;2022-08-21T14:08:47;9.18;;;2.42;;
22764;SDS011;11549;50.852;3.816;2022-08-21T14:11:19;9.32;;;2.22;;
22764;SDS011;11549;50.852;3.816;2022-08-21T14:13:48;8.65;;;2.38;;
22764;SDS011;11549;50.852;3.816;2022-08-21T14:16:20;8.57;;;2.35;;
22764;SDS011;11549;50.852;3.816;2022-08-21T14:18:52;10.27;;;2.55;;
22764;SDS011;11549;50.852;3.816;2022-08-21T14:21:34;9.02;;;2.33;;
22764;SDS011;11549;50.852;3.816;2022-08-21T14:24:06;9.32;;;2.40;;
22764;SDS011;11549;50.852;3.816;2022-08-21T14:26:37;9.02;;;2.25;;
22764;SDS011;11549;50.852;3.816;2022-08-21T14:29:14;8.20;;;2.03;;
22764;SDS011;11549;50.852;3.816;2022-08-21T14:31:49;10.45;;;2.30;;
22764;SDS011;11549;50.852;3.816;2022-08-21T14:34:20;9.05;;;2.20;;
22764;SDS011;11549;50.852;3.816;2022-08-21T14:36:50;10.07;;;2.28;;
22764;SDS011;11549;50.852;3.816;2022-08-21T14:39:19;9.73;;;2.70;;
22764;SDS011;11549;50.852;3.816;2022-08-21T14:41:48;9.18;;;2.10;;
22764;SDS011;11549;50.852;3.816;2022-08-21T14:44:17;13.02;;;2.25;;
22764;SDS011;11549;50.852;3.816;2022-08-21T14:46:46;7.70;;;1.80;;
22764;SDS011;11549;50.852;3.816;2022-08-21T14:49:22;10.98;;;2.60;;
22764;SDS011;11549;50.852;3.816;2022-08-21T14:51:54;7.30;;;1.98;;
22764;SDS011;11549;50.852;3.816;2022-08-21T14:54:25;9.60;;;2.40;;
22764;SDS011;11549;50.852;3.816;2022-08-21T14:56:57;9.20;;;2.03;;
22764;SDS011;11549;50.852;3.816;2022-08-21T14:59:28;7.97;;;2.00;;
22764;SDS011;11549;50.852;3.816;2022-08-21T15:01:58;6.80;;;2.10;;
22764;SDS011;11549;50.852;3.816;2022-08-21T15:04:28;9.00;;;2.72;;
22764;SDS011;11549;50.852;3.816;2022-08-21T15:06:56;7.00;;;2.17;;
22764;SDS011;11549;50.852;3.816;2022-08-21T15:09:24;9.18;;;1.95;;
22764;SDS011;11549;50.852;3.816;2022-08-21T15:11:53;9.55;;;2.40;;
22764;SDS011;11549;50.852;3.816;2022-08-21T15:14:25;8.73;;;1.90;;
22764;SDS011;11549;50.852;3.816;2022-08-21T15:16:55;9.60;;;2.10;;